sensor_id;sensor_type;location;lat;lon;timestamp;pressure;altitude;pressure_sealevel;temperature;humidity
75447;BME280;64024;55.820;37.574;2023-10-13T00:00:34;97420.06;;;19.19;51.43
75447;BME280;64024;55.820;37.574;2023-10-13T00:03:06;97418.47;;;19.18;51.41
75447;BME280;64024;55.820;37.574;2023-10-13T00:05:34;97420.38;;;19.18;51.41
75447;BME280;64024;55.820;37.574;2023-10-13T00:08:00;97429.56;;;19.17;51.52
75447;BME280;64024;55.820;37.574;2023-10-13T00:10:35;97426.88;;;19.17;51.61
75447;BME280;64024;55.820;37.574;2023-10-13T00:13:01;97429.06;;;19.15;51.50
75447;BME280;64024;55.820;37.574;2023-10-13T00:15:42;97437.13;;;19.15;51.55
75447;BME280;64024;55.820;37.574;2023-10-13T00:18:30;97437.13;;;19.15;51.49
75447;BME280;64024;55.820;37.574;2023-10-13T00:21:02;97437.13;;;19.15;51.76
75447;BME280;64024;55.820;37.574;2023-10-13T00:23:46;97439.03;;;19.14;51.45
75447;BME280;64024;55.820;37.574;2023-10-13T00:26:38;97421.31;;;19.13;51.61
75447;BME280;64024;55.820;37.574;2023-10-13T00:29:08;97435.88;;;19.12;51.52
75447;BME280;64024;55.820;37.574;2023-10-13T00:31:39;97436.16;;;19.10;51.65
75447;BME280;64024;55.820;37.574;2023-10-13T00:34:12;97448.84;;;19.10;51.56
75447;BME280;64024;55.820;37.574;2023-10-13T00:36:44;97442.66;;;19.09;51.61
75447;BME280;64024;55.820;37.574;2023-10-13T00:39:36;97445.34;;;19.09;51.58
75447;BME280;64024;55.820;37.574;2023-10-13T00:42:03;97436.47;;;19.09;51.46
75447;BME280;64024;55.820;37.574;2023-10-13T00:44:33;97442.97;;;19.08;51.60
75447;BME280;64024;55.820;37.574;2023-10-13T00:47:10;97452.94;;;19.07;51.66
75447;BME280;64024;55.820;37.574;2023-10-13T00:49:48;97450.22;;;19.07;51.44
75447;BME280;64024;55.820;37.574;2023-10-13T00:52:18;97458.63;;;19.06;51.84
75447;BME280;64024;55.820;37.574;2023-10-13T00:54:44;97459.75;;;19.05;51.63
75447;BME280;64024;55.820;37.574;2023-10-13T00:57:14;97467.50;;;19.06;51.62
75447;BME280;64024;55.820;37.574;2023-10-13T00:59:57;97465.91;;;19.05;51.37
75447;BME280;64024;55.820;37.574;2023-10-13T01:02:23;97462.44;;;19.05;51.61
75447;BME280;64024;55.820;37.574;2023-10-13T01:05:04;97463.22;;;19.05;51.53
75447;BME280;64024;55.820;37.574;2023-10-13T01:07:30;97463.53;;;19.04;51.64
75447;BME280;64024;55.820;37.574;2023-10-13T01:09:56;97472.41;;;19.04;51.77
75447;BME280;64024;55.820;37.574;2023-10-13T01:12:22;97468.09;;;19.03;51.65
75447;BME280;64024;55.820;37.574;2023-10-13T01:14:51;97465.41;;;19.03;51.78
75447;BME280;64024;55.820;37.574;2023-10-13T01:17:18;97472.69;;;19.03;51.73
75447;BME280;64024;55.820;37.574;2023-10-13T01:19:43;97467.63;;;19.01;51.72
75447;BME280;64024;55.820;37.574;2023-10-13T01:22:11;97479.19;;;19.02;51.53
75447;BME280;64024;55.820;37.574;2023-10-13T01:24:37;97477.28;;;19.02;51.54
75447;BME280;64024;55.820;37.574;2023-10-13T01:27:03;97484.56;;;19.02;51.38
75447;BME280;64024;55.820;37.574;2023-10-13T01:29:49;97484.56;;;19.02;51.31
75447;BME280;64024;55.820;37.574;2023-10-13T01:32:24;97485.38;;;19.02;51.52
75447;BME280;64024;55.820;37.574;2023-10-13T01:34:50;97480.28;;;19.01;51.30
75447;BME280;64024;55.820;37.574;2023-10-13T01:37:21;97487.59;;;19.00;51.46
75447;BME280;64024;55.820;37.574;2023-10-13T01:39:47;97493.75;;;19.01;51.37
75447;BME280;64024;55.820;37.574;2023-10-13T01:42:14;97491.34;;;18.99;51.42
75447;BME280;64024;55.820;37.574;2023-10-13T01:44:45;97496.72;;;18.99;51.30
75447;BME280;64024;55.820;37.574;2023-10-13T01:47:11;97498.63;;;18.99;51.33
75447;BME280;64024;55.820;37.574;2023-10-13T01:49:38;97500.53;;;18.98;51.43
75447;BME280;64024;55.820;37.574;2023-10-13T01:52:08;97504.03;;;18.99;51.57
75447;BME280;64024;55.820;37.574;2023-10-13T01:54:39;97492.47;;;18.98;51.31
75447;BME280;64024;55.820;37.574;2023-10-13T01:57:10;97498.63;;;18.99;51.22
75447;BME280;64024;55.820;37.574;2023-10-13T01:59:47;97489.78;;;18.98;51.34
75447;BME280;64024;55.820;37.574;2023-10-13T02:02:13;97490.09;;;18.97;51.29
75447;BME280;64024;55.820;37.574;2023-10-13T02:04:40;97488.97;;;18.98;51.30
75447;BME280;64024;55.820;37.574;2023-10-13T02:07:14;97493.56;;;18.97;51.38
75447;BME280;64024;55.820;37.574;2023-10-13T02:09:41;97494.69;;;18.96;51.17
75447;BME280;64024;55.820;37.574;2023-10-13T02:12:08;97498.16;;;18.97;51.33
75447;BME280;64024;55.820;37.574;2023-10-13T02:14:36;97508.13;;;18.96;51.11
75447;BME280;64024;55.820;37.574;2023-10-13T02:17:04;97500.06;;;18.96;51.49
75447;BME280;64024;55.820;37.574;2023-10-13T02:19:41;97491.97;;;18.96;51.40
75447;BME280;64024;55.820;37.574;2023-10-13T02:22:14;97499.28;;;18.96;51.30
75447;BME280;64024;55.820;37.574;2023-10-13T02:24:57;97507.34;;;18.96;51.42
75447;BME280;64024;55.820;37.574;2023-10-13T02:27:33;97505.72;;;18.95;51.11
75447;BME280;64024;55.820;37.574;2023-10-13T02:30:09;97499.28;;;18.96;51.22
75447;BME280;64024;55.820;37.574;2023-10-13T02:32:45;97490.69;;;18.94;51.17
75447;BME280;64024;55.820;37.574;2023-10-13T02:35:11;97506.84;;;18.94;51.43
75447;BME280;64024;55.820;37.574;2023-10-13T02:37:42;97519.50;;;18.93;51.33
75447;BME280;64024;55.820;37.574;2023-10-13T02:40:11;97524.09;;;18.93;51.31
75447;BME280;64024;55.820;37.574;2023-10-13T02:42:37;97512.53;;;18.92;51.32
75447;BME280;64024;55.820;37.574;2023-10-13T02:45:02;97533.28;;;18.92;51.19
75447;BME280;64024;55.820;37.574;2023-10-13T02:47:30;97532.50;;;18.91;51.23
75447;BME280;64024;55.820;37.574;2023-10-13T02:49:59;97527.09;;;18.91;51.22
75447;BME280;64024;55.820;37.574;2023-10-13T02:52:32;97534.06;;;18.92;51.28
75447;BME280;64024;55.820;37.574;2023-10-13T02:55:03;97538.34;;;18.93;51.54
75447;BME280;64024;55.820;37.574;2023-10-13T02:57:34;97539.47;;;18.92;51.84
75447;BME280;64024;55.820;37.574;2023-10-13T02:59:59;97546.75;;;18.92;51.74
75447;BME280;64024;55.820;37.574;2023-10-13T03:02:37;97542.16;;;18.92;52.14
75447;BME280;64024;55.820;37.574;2023-10-13T03:05:09;97532.16;;;18.93;52.26
75447;BME280;64024;55.820;37.574;2023-10-13T03:07:35;97541.63;;;18.90;52.28
75447;BME280;64024;55.820;37.574;2023-10-13T03:10:02;97544.03;;;18.92;52.36
75447;BME280;64024;55.820;37.574;2023-10-13T03:12:40;97546.75;;;18.92;52.54
75447;BME280;64024;55.820;37.574;2023-10-13T03:15:07;97535.19;;;18.91;52.75
75447;BME280;64024;55.820;37.574;2023-10-13T03:17:47;97540.84;;;18.90;52.55
75447;BME280;64024;55.820;37.574;2023-10-13T03:20:14;97553.19;;;18.91;52.92
75447;BME280;64024;55.820;37.574;2023-10-13T03:22:42;97538.94;;;18.90;52.70
75447;BME280;64024;55.820;37.574;2023-10-13T03:25:18;97549.72;;;18.90;52.53
75447;BME280;64024;55.820;37.574;2023-10-13T03:28:04;97559.41;;;18.91;52.37
75447;BME280;64024;55.820;37.574;2023-10-13T03:30:30;97548.13;;;18.89;52.39
75447;BME280;64024;55.820;37.574;2023-10-13T03:33:08;97557.00;;;18.90;52.26
75447;BME280;64024;55.820;37.574;2023-10-13T03:35:39;97562.38;;;18.90;52.38
75447;BME280;64024;55.820;37.574;2023-10-13T03:38:09;97558.91;;;18.89;52.35
75447;BME280;64024;55.820;37.574;2023-10-13T03:40:49;97546.22;;;18.90;52.12
75447;BME280;64024;55.820;37.574;2023-10-13T03:43:21;97576.94;;;18.88;52.30
75447;BME280;64024;55.820;37.574;2023-10-13T03:45:50;97575.38;;;18.87;52.16
75447;BME280;64024;55.820;37.574;2023-10-13T03:48:33;97586.13;;;18.87;52.25
75447;BME280;64024;55.820;37.574;2023-10-13T03:51:06;97586.13;;;18.87;51.86
75447;BME280;64024;55.820;37.574;2023-10-13T03:53:42;97585.34;;;18.87;51.79
75447;BME280;64024;55.820;37.574;2023-10-13T03:56:24;97580.75;;;18.87;51.97
75447;BME280;64024;55.820;37.574;2023-10-13T03:59:06;97603.34;;;18.86;51.92
75447;BME280;64024;55.820;37.574;2023-10-13T04:01:38;97600.66;;;18.86;51.81
75447;BME280;64024;55.820;37.574;2023-10-13T04:04:23;97611.44;;;18.86;51.60
75447;BME280;64024;55.820;37.574;2023-10-13T04:07:08;97609.44;;;18.92;51.82
75447;BME280;64024;55.820;37.574;2023-10-13T04:09:35;97622.41;;;18.90;51.37
75447;BME280;64024;55.820;37.574;2023-10-13T04:12:06;97628.41;;;18.87;51.69
75447;BME280;64024;55.820;37.574;2023-10-13T04:14:44;97634.88;;;18.86;51.58
75447;BME280;64024;55.820;37.574;2023-10-13T04:17:29;97632.16;;;18.86;51.58
75447;BME280;64024;55.820;37.574;2023-10-13T04:20:00;97644.03;;;18.85;51.75
75447;BME280;64024;55.820;37.574;2023-10-13T04:25:22;97655.59;;;18.85;51.52
75447;BME280;64024;55.820;37.574;2023-10-13T04:27:58;97647.84;;;18.84;51.65
75447;BME280;64024;55.820;37.574;2023-10-13T04:33:21;97670.16;;;18.84;51.36
75447;BME280;64024;55.820;37.574;2023-10-13T04:36:22;97672.84;;;18.84;51.54
75447;BME280;64024;55.820;37.574;2023-10-13T04:38:55;97685.53;;;18.84;51.65
75447;BME280;64024;55.820;37.574;2023-10-13T04:41:37;97683.63;;;18.84;51.30
75447;BME280;64024;55.820;37.574;2023-10-13T04:44:08;97678.25;;;18.84;51.50
75447;BME280;64024;55.820;37.574;2023-10-13T04:46:53;97691.69;;;18.84;51.45
75447;BME280;64024;55.820;37.574;2023-10-13T04:49:20;97699.78;;;18.84;51.38
75447;BME280;64024;55.820;37.574;2023-10-13T04:51:58;97707.06;;;18.84;51.56
75447;BME280;64024;55.820;37.574;2023-10-13T04:54:29;97705.16;;;18.84;51.45
75447;BME280;64024;55.820;37.574;2023-10-13T04:57:19;97711.03;;;18.86;50.94
75447;BME280;64024;55.820;37.574;2023-10-13T05:00:13;97711.84;;;18.87;51.37
75447;BME280;64024;55.820;37.574;2023-10-13T05:02:48;97705.63;;;18.86;51.24
75447;BME280;64024;55.820;37.574;2023-10-13T05:05:26;97714.53;;;18.87;51.33
75447;BME280;64024;55.820;37.574;2023-10-13T05:07:57;97711.03;;;18.86;51.33
75447;BME280;64024;55.820;37.574;2023-10-13T05:10:41;97715.03;;;18.89;51.17
75447;BME280;64024;55.820;37.574;2023-10-13T05:13:25;97718.50;;;18.90;51.18
75447;BME280;64024;55.820;37.574;2023-10-13T05:16:09;97714.44;;;18.92;51.31
75447;BME280;64024;55.820;37.574;2023-10-13T05:18:53;97729.47;;;18.93;51.23
75447;BME280;64024;55.820;37.574;2023-10-13T05:21:37;97741.56;;;18.96;51.29
75447;BME280;64024;55.820;37.574;2023-10-13T05:24:21;97733.16;;;18.97;51.14
75447;BME280;64024;55.820;37.574;2023-10-13T05:27:13;97746.03;;;19.00;51.25
75447;BME280;64024;55.820;37.574;2023-10-13T05:29:57;97753.00;;;19.01;51.24
75447;BME280;64024;55.820;37.574;2023-10-13T05:32:41;97765.38;;;19.02;51.02
75447;BME280;64024;55.820;37.574;2023-10-13T05:35:30;97769.66;;;19.03;51.03
75447;BME280;64024;55.820;37.574;2023-10-13T05:38:14;97779.03;;;19.06;51.04
75447;BME280;64024;55.820;37.574;2023-10-13T05:41:05;97789.50;;;19.07;50.82
75447;BME280;64024;55.820;37.574;2023-10-13T05:43:50;97789.50;;;19.07;50.97
75447;BME280;64024;55.820;37.574;2023-10-13T05:46:34;97787.31;;;19.09;50.96
75447;BME280;64024;55.820;37.574;2023-10-13T05:49:04;97795.41;;;19.09;50.56
75447;BME280;64024;55.820;37.574;2023-10-13T05:51:42;97792.41;;;19.11;50.92
75447;BME280;64024;55.820;37.574;2023-10-13T05:54:10;97795.59;;;19.13;50.74
75447;BME280;64024;55.820;37.574;2023-10-13T05:56:47;97786.41;;;19.14;50.87
75447;BME280;64024;55.820;37.574;2023-10-13T05:59:34;97804.69;;;19.17;50.75
75447;BME280;64024;55.820;37.574;2023-10-13T06:02:19;97807.06;;;19.19;50.84
75447;BME280;64024;55.820;37.574;2023-10-13T06:05:08;97823.75;;;19.21;50.93
75447;BME280;64024;55.820;37.574;2023-10-13T06:07:53;97819.63;;;19.23;50.79
75447;BME280;64024;55.820;37.574;2023-10-13T06:10:38;97826.63;;;19.24;50.83
75447;BME280;64024;55.820;37.574;2023-10-13T06:13:25;97829.03;;;19.26;51.03
75447;BME280;64024;55.820;37.574;2023-10-13T06:16:11;97838.69;;;19.27;50.89
75447;BME280;64024;55.820;37.574;2023-10-13T06:18:55;97833.81;;;19.29;50.63
75447;BME280;64024;55.820;37.574;2023-10-13T06:21:40;97834.31;;;19.31;50.76
75447;BME280;64024;55.820;37.574;2023-10-13T06:24:24;97845.59;;;19.33;50.78
75447;BME280;64024;55.820;37.574;2023-10-13T06:27:09;97841.00;;;19.33;50.60
75447;BME280;64024;55.820;37.574;2023-10-13T06:29:54;97847.97;;;19.34;50.45
75447;BME280;64024;55.820;37.574;2023-10-13T06:32:20;97854.97;;;19.35;50.67
75447;BME280;64024;55.820;37.574;2023-10-13T06:34:46;97861.94;;;19.36;50.57
75447;BME280;64024;55.820;37.574;2023-10-13T06:37:15;97858.16;;;19.37;50.56
75447;BME280;64024;55.820;37.574;2023-10-13T06:39:53;97865.63;;;19.41;50.15
75447;BME280;64024;55.820;37.574;2023-10-13T06:42:32;97858.38;;;19.41;50.22
75447;BME280;64024;55.820;37.574;2023-10-13T06:45:00;97858.06;;;19.43;50.44
75447;BME280;64024;55.820;37.574;2023-10-13T06:47:34;97864.75;;;19.45;50.44
75447;BME280;64024;55.820;37.574;2023-10-13T06:50:15;97858.25;;;19.46;50.21
75447;BME280;64024;55.820;37.574;2023-10-13T06:52:44;97869.25;;;19.50;50.33
75447;BME280;64024;55.820;37.574;2023-10-13T06:55:12;97868.44;;;19.49;50.18
75447;BME280;64024;55.820;37.574;2023-10-13T06:57:46;97874.31;;;19.51;50.10
75447;BME280;64024;55.820;37.574;2023-10-13T07:00:12;97879.41;;;19.53;50.23
75447;BME280;64024;55.820;37.574;2023-10-13T07:03:13;97883.09;;;19.57;50.04
75447;BME280;64024;55.820;37.574;2023-10-13T07:05:48;97886.63;;;19.57;49.51
75447;BME280;64024;55.820;37.574;2023-10-13T07:08:14;97902.78;;;19.57;49.27
75447;BME280;64024;55.820;37.574;2023-10-13T07:10:50;97907.06;;;19.58;48.32
75447;BME280;64024;55.820;37.574;2023-10-13T07:13:33;97907.06;;;19.58;48.39
75447;BME280;64024;55.820;37.574;2023-10-13T07:16:06;97904.38;;;19.58;47.54
75447;BME280;64024;55.820;37.574;2023-10-13T07:18:38;97905.16;;;19.59;47.54
75447;BME280;64024;55.820;37.574;2023-10-13T07:21:19;97912.16;;;19.60;47.15
75447;BME280;64024;55.820;37.574;2023-10-13T07:23:56;97934.81;;;19.59;47.30
75447;BME280;64024;55.820;37.574;2023-10-13T07:26:37;97939.41;;;19.58;46.92
75447;BME280;64024;55.820;37.574;2023-10-13T07:29:11;97946.69;;;19.58;46.77
75447;BME280;64024;55.820;37.574;2023-10-13T07:31:37;97927.84;;;19.58;46.47
75447;BME280;64024;55.820;37.574;2023-10-13T07:34:05;97950.19;;;19.58;46.61
75447;BME280;64024;55.820;37.574;2023-10-13T07:36:35;97952.88;;;19.58;46.60
75447;BME280;64024;55.820;37.574;2023-10-13T07:39:06;97955.56;;;19.58;46.11
75447;BME280;64024;55.820;37.574;2023-10-13T07:41:48;97952.88;;;19.58;46.11
75447;BME280;64024;55.820;37.574;2023-10-13T07:44:18;97962.56;;;19.59;45.55
75447;BME280;64024;55.820;37.574;2023-10-13T07:46:47;97962.88;;;19.58;45.63
75447;BME280;64024;55.820;37.574;2023-10-13T07:49:23;97974.72;;;19.57;45.70
75447;BME280;64024;55.820;37.574;2023-10-13T07:51:49;97978.53;;;19.56;45.62
75447;BME280;64024;55.820;37.574;2023-10-13T07:54:22;97970.16;;;19.57;45.30
75447;BME280;64024;55.820;37.574;2023-10-13T07:56:50;97959.38;;;19.57;45.22
75447;BME280;64024;55.820;37.574;2023-10-13T07:59:16;97980.63;;;19.59;45.19
75447;BME280;64024;55.820;37.574;2023-10-13T08:01:41;97996.78;;;19.59;45.04
75447;BME280;64024;55.820;37.574;2023-10-13T08:04:09;98002.97;;;19.59;45.03
75447;BME280;64024;55.820;37.574;2023-10-13T08:06:34;98009.47;;;19.58;44.81
75447;BME280;64024;55.820;37.574;2023-10-13T08:09:02;97992.50;;;19.58;44.90
75447;BME280;64024;55.820;37.574;2023-10-13T08:11:56;98021.38;;;19.57;44.63
75447;BME280;64024;55.820;37.574;2023-10-13T08:14:22;98030.25;;;19.58;44.54
75447;BME280;64024;55.820;37.574;2023-10-13T08:16:49;98038.59;;;19.56;44.52
75447;BME280;64024;55.820;37.574;2023-10-13T08:19:26;98018.66;;;19.57;44.36
75447;BME280;64024;55.820;37.574;2023-10-13T08:22:10;98037.16;;;19.64;44.47
75447;BME280;64024;55.820;37.574;2023-10-13T08:24:51;98032.88;;;19.63;44.58
75447;BME280;64024;55.820;37.574;2023-10-13T08:27:23;98031.28;;;19.62;45.12
75447;BME280;64024;55.820;37.574;2023-10-13T08:29:59;98014.28;;;19.61;45.34
75447;BME280;64024;55.820;37.574;2023-10-13T08:32:44;98039.06;;;19.64;45.46
75447;BME280;64024;55.820;37.574;2023-10-13T08:35:29;98044.13;;;19.65;45.60
75447;BME280;64024;55.820;37.574;2023-10-13T08:37:55;98053.84;;;19.66;45.83
75447;BME280;64024;55.820;37.574;2023-10-13T08:40:27;98050.84;;;19.68;45.84
75447;BME280;64024;55.820;37.574;2023-10-13T08:43:11;98058.34;;;19.71;46.13
75447;BME280;64024;55.820;37.574;2023-10-13T08:45:39;98058.84;;;19.73;46.34
75447;BME280;64024;55.820;37.574;2023-10-13T08:48:06;98057.72;;;19.74;46.39
75447;BME280;64024;55.820;37.574;2023-10-13T08:50:44;98067.13;;;19.76;46.41
75447;BME280;64024;55.820;37.574;2023-10-13T08:53:24;98065.75;;;19.79;46.43
75447;BME280;64024;55.820;37.574;2023-10-13T08:56:07;98064.06;;;19.83;46.73
75447;BME280;64024;55.820;37.574;2023-10-13T08:58:37;98076.13;;;19.85;46.73
75447;BME280;64024;55.820;37.574;2023-10-13T09:01:35;98074.16;;;19.91;47.16
75447;BME280;64024;55.820;37.574;2023-10-13T09:04:19;98066.56;;;19.93;47.10
75447;BME280;64024;55.820;37.574;2023-10-13T09:06:49;98084.06;;;19.96;47.10
75447;BME280;64024;55.820;37.574;2023-10-13T09:12:20;98087.44;;;20.01;47.07
75447;BME280;64024;55.820;37.574;2023-10-13T09:14:56;98084.97;;;20.05;47.25
75447;BME280;64024;55.820;37.574;2023-10-13T09:17:29;98070.09;;;20.07;47.26
75447;BME280;64024;55.820;37.574;2023-10-13T09:20:08;98107.22;;;20.10;47.23
75447;BME280;64024;55.820;37.574;2023-10-13T09:22:58;98107.44;;;20.14;47.04
75447;BME280;64024;55.820;37.574;2023-10-13T09:25:31;98108.75;;;20.17;46.98
75447;BME280;64024;55.820;37.574;2023-10-13T09:28:01;98103.06;;;20.18;47.07
75447;BME280;64024;55.820;37.574;2023-10-13T09:30:28;98106.28;;;20.20;47.02
75447;BME280;64024;55.820;37.574;2023-10-13T09:33:04;98122.66;;;20.24;46.91
75447;BME280;64024;55.820;37.574;2023-10-13T09:35:31;98133.16;;;20.25;46.98
75447;BME280;64024;55.820;37.574;2023-10-13T09:38:00;98139.81;;;20.28;46.88
75447;BME280;64024;55.820;37.574;2023-10-13T09:40:29;98137.63;;;20.30;46.89
75447;BME280;64024;55.820;37.574;2023-10-13T09:43:01;98144.03;;;20.34;46.74
75447;BME280;64024;55.820;37.574;2023-10-13T09:45:41;98123.78;;;20.36;46.65
75447;BME280;64024;55.820;37.574;2023-10-13T09:48:29;98143.66;;;20.41;46.53
75447;BME280;64024;55.820;37.574;2023-10-13T09:51:00;98142.56;;;20.42;46.63
75447;BME280;64024;55.820;37.574;2023-10-13T09:53:26;98170.81;;;20.44;45.84
75447;BME280;64024;55.820;37.574;2023-10-13T09:56:12;98164.94;;;20.42;42.86
75447;BME280;64024;55.820;37.574;2023-10-13T09:58:58;98179.59;;;20.36;41.57
75447;BME280;64024;55.820;37.574;2023-10-13T10:01:28;98178.22;;;20.25;41.50
75447;BME280;64024;55.820;37.574;2023-10-13T10:04:10;98177.56;;;20.14;40.50
75447;BME280;64024;55.820;37.574;2023-10-13T10:06:39;98170.47;;;20.04;41.00
75447;BME280;64024;55.820;37.574;2023-10-13T10:09:06;98188.13;;;19.97;40.53
75447;BME280;64024;55.820;37.574;2023-10-13T10:12:01;98188.81;;;19.89;39.49
75447;BME280;64024;55.820;37.574;2023-10-13T10:17:20;98194.72;;;19.72;39.62
75447;BME280;64024;55.820;37.574;2023-10-13T10:19:51;98196.19;;;19.64;39.21
75447;BME280;64024;55.820;37.574;2023-10-13T10:22:30;98194.91;;;19.56;38.88
75447;BME280;64024;55.820;37.574;2023-10-13T10:25:05;98214.97;;;19.50;38.92
75447;BME280;64024;55.820;37.574;2023-10-13T10:27:56;98221.00;;;19.42;38.77
75447;BME280;64024;55.820;37.574;2023-10-13T10:30:29;98242.63;;;19.37;38.65
75447;BME280;64024;55.820;37.574;2023-10-13T10:32:59;98231.09;;;19.31;39.11
75447;BME280;64024;55.820;37.574;2023-10-13T10:35:26;98212.53;;;19.30;39.52
75447;BME280;64024;55.820;37.574;2023-10-13T10:46:15;98275.69;;;19.43;41.77
75447;BME280;64024;55.820;37.574;2023-10-13T10:48:44;98262.72;;;19.45;42.41
75447;BME280;64024;55.820;37.574;2023-10-13T10:51:14;98295.28;;;19.48;43.21
75447;BME280;64024;55.820;37.574;2023-10-13T10:53:49;98303.31;;;19.53;43.57
75447;BME280;64024;55.820;37.574;2023-10-13T10:56:21;98305.66;;;19.60;44.39
75447;BME280;64024;55.820;37.574;2023-10-13T10:58:57;98269.50;;;19.66;44.50
75447;BME280;64024;55.820;37.574;2023-10-13T11:01:26;98305.56;;;19.70;44.55
75447;BME280;64024;55.820;37.574;2023-10-13T11:04:03;98287.41;;;19.76;45.10
75447;BME280;64024;55.820;37.574;2023-10-13T11:06:54;98311.31;;;19.82;45.07
75447;BME280;64024;55.820;37.574;2023-10-13T11:09:27;98287.25;;;19.86;45.05
75447;BME280;64024;55.820;37.574;2023-10-13T11:12:15;98288.78;;;19.92;45.22
75447;BME280;64024;55.820;37.574;2023-10-13T11:14:45;98254.22;;;19.94;45.21
75447;BME280;64024;55.820;37.574;2023-10-13T11:17:20;98269.84;;;19.97;45.29
75447;BME280;64024;55.820;37.574;2023-10-13T11:19:51;98270.34;;;19.99;45.07
75447;BME280;64024;55.820;37.574;2023-10-13T11:22:23;98267.84;;;20.03;45.31
75447;BME280;64024;55.820;37.574;2023-10-13T11:25:00;98273.47;;;20.06;45.37
75447;BME280;64024;55.820;37.574;2023-10-13T11:27:37;98275.56;;;20.09;45.12
75447;BME280;64024;55.820;37.574;2023-10-13T11:30:16;98273.41;;;20.11;44.92
75447;BME280;64024;55.820;37.574;2023-10-13T11:32:59;98287.06;;;20.15;44.56
75447;BME280;64024;55.820;37.574;2023-10-13T11:35:25;98280.31;;;20.18;44.61
75447;BME280;64024;55.820;37.574;2023-10-13T11:37:51;98280.81;;;20.20;44.61
75447;BME280;64024;55.820;37.574;2023-10-13T11:40:32;98301.00;;;20.22;44.30
75447;BME280;64024;55.820;37.574;2023-10-13T11:43:10;98307.09;;;20.28;44.43
75447;BME280;64024;55.820;37.574;2023-10-13T11:45:47;98296.25;;;20.33;44.35
75447;BME280;64024;55.820;37.574;2023-10-13T11:48:34;98304.25;;;20.38;44.33
75447;BME280;64024;55.820;37.574;2023-10-13T11:51:02;98291.25;;;20.40;44.45
75447;BME280;64024;55.820;37.574;2023-10-13T11:53:48;98296.59;;;20.45;44.67
75447;BME280;64024;55.820;37.574;2023-10-13T11:56:18;98299.78;;;20.47;44.76
75447;BME280;64024;55.820;37.574;2023-10-13T11:58:46;98299.22;;;20.50;44.68
75447;BME280;64024;55.820;37.574;2023-10-13T12:01:12;98289.75;;;20.53;44.72
75447;BME280;64024;55.820;37.574;2023-10-13T12:03:38;98298.34;;;20.55;44.88
75447;BME280;64024;55.820;37.574;2023-10-13T12:06:22;98295.06;;;20.58;44.75
75447;BME280;64024;55.820;37.574;2023-10-13T12:09:07;98298.25;;;20.60;44.67
75447;BME280;64024;55.820;37.574;2023-10-13T12:12:07;98297.66;;;20.63;44.62
75447;BME280;64024;55.820;37.574;2023-10-13T12:14:33;98302.75;;;20.65;44.49
75447;BME280;64024;55.820;37.574;2023-10-13T12:17:18;98297.88;;;20.67;44.36
75447;BME280;64024;55.820;37.574;2023-10-13T12:19:51;98306.78;;;20.67;44.54
75447;BME280;64024;55.820;37.574;2023-10-13T12:22:21;98307.56;;;20.68;44.44
75447;BME280;64024;55.820;37.574;2023-10-13T12:24:54;98303.75;;;20.69;44.52
75447;BME280;64024;55.820;37.574;2023-10-13T12:27:20;98298.88;;;20.71;44.49
75447;BME280;64024;55.820;37.574;2023-10-13T12:29:50;98299.69;;;20.71;44.34
75447;BME280;64024;55.820;37.574;2023-10-13T12:32:22;98310.97;;;20.73;44.40
75447;BME280;64024;55.820;37.574;2023-10-13T12:34:56;98315.28;;;20.74;44.43
75447;BME280;64024;55.820;37.574;2023-10-13T12:37:45;98337.38;;;20.76;44.31
75447;BME280;64024;55.820;37.574;2023-10-13T12:40:19;98320.38;;;20.76;42.85
75447;BME280;64024;55.820;37.574;2023-10-13T12:43:04;98329.06;;;20.73;42.21
75447;BME280;64024;55.820;37.574;2023-10-13T12:45:49;98326.59;;;20.76;41.86
75447;BME280;64024;55.820;37.574;2023-10-13T12:48:34;98325.09;;;20.70;41.84
75447;BME280;64024;55.820;37.574;2023-10-13T12:51:18;98327.28;;;20.68;41.81
75447;BME280;64024;55.820;37.574;2023-10-13T12:54:02;98327.56;;;20.67;42.11
75447;BME280;64024;55.820;37.574;2023-10-13T12:56:32;98327.56;;;20.67;42.57
75447;BME280;64024;55.820;37.574;2023-10-13T12:58:58;98334.56;;;20.68;42.66
75447;BME280;64024;55.820;37.574;2023-10-13T13:01:26;98345.88;;;20.70;42.87
75447;BME280;64024;55.820;37.574;2023-10-13T13:03:58;98336.69;;;20.71;43.06
75447;BME280;64024;55.820;37.574;2023-10-13T13:06:27;98332.88;;;20.72;43.09
75447;BME280;64024;55.820;37.574;2023-10-13T13:08:56;98345.28;;;20.73;43.40
75447;BME280;64024;55.820;37.574;2023-10-13T13:11:22;98349.72;;;20.82;43.35
75447;BME280;64024;55.820;37.574;2023-10-13T13:13:48;98352.69;;;20.81;43.42
75447;BME280;64024;55.820;37.574;2023-10-13T13:16:17;98343.53;;;20.82;43.58
75447;BME280;64024;55.820;37.574;2023-10-13T13:18:44;98353.50;;;20.81;43.65
75447;BME280;64024;55.820;37.574;2023-10-13T13:21:10;98355.91;;;20.83;43.53
75447;BME280;64024;55.820;37.574;2023-10-13T13:23:46;98349.72;;;20.82;43.22
75447;BME280;64024;55.820;37.574;2023-10-13T13:26:12;98350.31;;;20.79;42.81
75447;BME280;64024;55.820;37.574;2023-10-13T13:28:46;98349.28;;;20.75;42.29
75447;BME280;64024;55.820;37.574;2023-10-13T13:31:22;98355.59;;;20.71;41.87
75447;BME280;64024;55.820;37.574;2023-10-13T13:33:54;98357.28;;;20.67;42.06
75447;BME280;64024;55.820;37.574;2023-10-13T13:36:20;98365.16;;;20.63;42.16
75447;BME280;64024;55.820;37.574;2023-10-13T13:38:47;98365.66;;;20.65;42.32
75447;BME280;64024;55.820;37.574;2023-10-13T13:41:17;98367.28;;;20.66;42.55
75447;BME280;64024;55.820;37.574;2023-10-13T13:43:48;98373.97;;;20.69;42.85
75447;BME280;64024;55.820;37.574;2023-10-13T13:46:21;98372.59;;;20.71;43.00
75447;BME280;64024;55.820;37.574;2023-10-13T13:48:51;98384.72;;;20.74;43.12